Time;durP1;ratioP1;P1;durP2;ratioP2;P2;SDS_P1;SDS_P2;PMS_P1;PMS_P2;Temp;Humidity;BMP_temperature;BMP_pressure;BME280_temperature;BME280_humidity;BME280_pressure;Samples;Min_cycle;Max_cycle;Signal;HPM_P1;HPM_P2
2023/11/14 00:00:37;;;;;;;40.20;34.50;;;;;;;6.66;100.00;97473.69;109820;1250;60071;-74
2023/11/14 00:03:23;;;;;;;37.80;31.50;;;;;;;6.71;100.00;97458.25;109779;1250;74180;-74
2023/11/14 00:05:50;;;;;;;21.20;17.00;;;;;;;6.77;100.00;97451.27;109747;1250;59739;-74
2023/11/14 00:08:17;;;;;;;11.60;9.10;;;;;;;6.90;100.00;97452.70;109760;1250;59815;-74
2023/11/14 00:10:43;;;;;;;13.80;9.70;;;;;;;7.09;100.00;97450.78;109793;1250;59763;-74
2023/11/14 00:13:10;;;;;;;8.60;6.40;;;;;;;7.24;100.00;97452.77;109836;1249;60093;-73
2023/11/14 00:15:36;;;;;;;2.80;2.50;;;;;;;7.35;100.00;97443.95;109802;1249;63688;-73
2023/11/14 00:18:03;;;;;;;2.40;2.10;;;;;;;7.50;100.00;97447.40;109818;1249;59918;-73
2023/11/14 00:20:30;;;;;;;2.60;1.70;;;;;;;7.62;100.00;97439.74;109519;1251;59730;-73
2023/11/14 00:22:57;;;;;;;2.20;1.70;;;;;;;7.69;100.00;97432.63;109821;1250;68012;-73
2023/11/14 00:25:23;;;;;;;3.10;1.70;;;;;;;7.75;100.00;97433.00;109771;1250;59993;-73
2023/11/14 00:27:50;;;;;;;2.20;1.90;;;;;;;7.78;100.00;97429.40;109808;1249;60029;-74
2023/11/14 00:30:17;;;;;;;2.70;1.90;;;;;;;7.81;100.00;97428.45;109778;1249;59879;-74
2023/11/14 00:32:44;;;;;;;9.50;4.40;;;;;;;7.85;100.00;97428.52;109847;1250;59741;-74
2023/11/14 00:35:10;;;;;;;7.80;5.10;;;;;;;7.90;100.00;97426.86;109372;1250;66860;-74
2023/11/14 00:37:37;;;;;;;8.50;4.60;;;;;;;7.95;100.00;97429.11;109826;1249;60145;-74
2023/11/14 00:40:04;;;;;;;9.20;5.10;;;;;;;8.01;100.00;97422.76;109816;1249;62794;-73
2023/11/14 00:42:33;;;;;;;6.00;3.50;;;;;;;8.08;100.00;97432.65;109790;1249;60169;-74
2023/11/14 00:44:59;;;;;;;7.70;3.90;;;;;;;8.14;100.00;97437.98;109591;1249;59758;-74
2023/11/14 00:47:26;;;;;;;5.00;3.60;;;;;;;8.21;100.00;97442.71;109858;1249;66969;-74
2023/11/14 00:49:52;;;;;;;6.60;4.00;;;;;;;8.29;100.00;97456.92;109542;1250;59924;-74
2023/11/14 00:52:19;;;;;;;5.00;3.40;;;;;;;8.35;100.00;97468.45;109844;1249;59857;-74
2023/11/14 00:54:45;;;;;;;7.40;4.20;;;;;;;8.40;100.00;97472.68;109782;1250;59693;-73
2023/11/14 00:57:13;;;;;;;4.90;2.60;;;;;;;8.43;100.00;97475.94;109814;1249;59855;-73
2023/11/14 00:59:39;;;;;;;1.40;1.20;;;;;;;8.46;100.00;97482.11;109848;1249;67957;-73
2023/11/14 01:02:08;;;;;;;2.20;1.90;;;;;;;8.49;100.00;97493.92;109834;1249;60141;-73
2023/11/14 01:04:39;;;;;;;5.00;3.30;;;;;;;8.51;100.00;97509.13;109586;1249;62938;-73
2023/11/14 01:07:07;;;;;;;3.70;3.10;;;;;;;8.51;100.00;97529.09;109766;1249;59833;-73
2023/11/14 01:09:34;;;;;;;2.50;1.80;;;;;;;8.51;100.00;97546.14;109855;1249;59834;-73
2023/11/14 01:12:00;;;;;;;1.90;1.70;;;;;;;8.51;100.00;97570.74;109445;1249;66574;-73
2023/11/14 01:14:27;;;;;;;2.70;2.50;;;;;;;8.51;100.00;97586.48;109804;1249;59955;-72
2023/11/14 01:16:53;;;;;;;2.50;1.70;;;;;;;8.49;100.00;97598.51;109474;1250;62782;-72
2023/11/14 01:19:20;;;;;;;3.50;2.40;;;;;;;8.49;100.00;97618.69;109834;1249;59844;-71
2023/11/14 01:21:48;;;;;;;2.40;2.20;;;;;;;8.48;100.00;97603.52;109831;1250;59884;-73
2023/11/14 01:24:16;;;;;;;2.90;2.30;;;;;;;8.48;100.00;97580.52;109832;1249;66464;-72
2023/11/14 01:26:43;;;;;;;3.00;2.50;;;;;;;8.47;100.00;97583.64;109834;1249;59933;-73
2023/11/14 01:29:09;;;;;;;4.30;1.60;;;;;;;8.45;100.00;97581.09;109522;1249;64911;-73
2023/11/14 01:31:36;;;;;;;2.20;1.50;;;;;;;8.45;100.00;97577.56;109838;1249;59942;-72
2023/11/14 01:34:03;;;;;;;1.90;1.60;;;;;;;8.47;100.00;97565.95;109486;1249;59880;-74
2023/11/14 01:36:30;;;;;;;1.70;1.40;;;;;;;8.52;100.00;97580.04;109849;1249;67025;-74
2023/11/14 01:38:56;;;;;;;3.30;2.00;;;;;;;8.57;100.00;97581.04;109856;1250;60104;-74
2023/11/14 01:41:23;;;;;;;3.00;2.00;;;;;;;8.61;100.00;97574.37;109860;1249;63722;-74
2023/11/14 01:43:49;;;;;;;2.00;1.50;;;;;;;8.63;100.00;97563.36;109845;1249;59739;-74
2023/11/14 01:46:17;;;;;;;3.40;2.00;;;;;;;8.65;100.00;97537.39;109818;1249;59752;-74
2023/11/14 01:48:50;;;;;;;6.60;3.50;;;;;;;8.66;100.00;97547.69;109845;1250;65311;-75
2023/11/14 01:51:18;;;;;;;12.80;6.90;;;;;;;8.70;100.00;97557.09;109416;1249;60229;-75
2023/11/14 01:53:50;;;;;;;6.80;3.90;;;;;;;8.75;100.00;97554.75;109852;1250;62988;-74
2023/11/14 01:56:17;;;;;;;8.30;4.60;;;;;;;8.81;100.00;97548.44;109838;1249;59741;-74
2023/11/14 01:58:45;;;;;;;3.90;3.00;;;;;;;8.86;100.00;97527.30;109818;1249;59697;-75
2023/11/14 02:01:13;;;;;;;5.50;3.90;;;;;;;8.87;100.00;97548.33;109865;1249;65343;-74
2023/11/14 02:03:40;;;;;;;5.00;4.00;;;;;;;8.87;100.00;97557.70;109822;1250;61205;-75
2023/11/14 02:06:08;;;;;;;7.60;2.80;;;;;;;8.88;100.00;97559.22;109859;1249;63747;-75
2023/11/14 02:08:35;;;;;;;6.30;3.60;;;;;;;8.90;100.00;97553.92;109544;1251;59794;-75
2023/11/14 02:11:02;;;;;;;5.40;3.50;;;;;;;8.92;100.00;97548.59;109861;1250;59782;-75
2023/11/14 02:13:28;;;;;;;9.40;5.30;;;;;;;8.94;100.00;97557.42;109509;1250;66896;-75
2023/11/14 02:15:55;;;;;;;7.00;3.40;;;;;;;8.98;100.00;97569.70;109904;1249;59792;-74
2023/11/14 02:18:21;;;;;;;11.00;6.50;;;;;;;9.00;100.00;97581.71;109824;1250;63754;-74
2023/11/14 02:20:48;;;;;;;7.60;4.70;;;;;;;9.04;100.00;97581.44;109827;1249;59756;-74
2023/11/14 02:23:16;;;;;;;8.50;5.20;;;;;;;9.05;100.00;97574.40;109851;1250;59989;-75
2023/11/14 02:25:44;;;;;;;3.80;2.90;;;;;;;9.06;100.00;97557.33;109864;1249;68414;-75
2023/11/14 02:28:11;;;;;;;3.90;2.80;;;;;;;9.06;100.00;97509.01;109902;1249;59870;-74
2023/11/14 02:30:38;;;;;;;4.20;2.80;;;;;;;9.04;100.00;97516.25;109810;1249;63723;-74
2023/11/14 02:33:05;;;;;;;5.10;4.60;;;;;;;9.02;100.00;97508.23;109541;1249;59812;-75
2023/11/14 02:35:32;;;;;;;5.50;4.60;;;;;;;9.00;100.00;97510.88;109814;1249;59697;-75
2023/11/14 02:38:00;;;;;;;7.50;5.90;;;;;;;8.99;100.00;97503.82;109620;1249;66550;-74
2023/11/14 02:40:26;;;;;;;7.20;5.20;;;;;;;9.01;100.00;97512.42;109433;1249;59892;-75
2023/11/14 02:42:53;;;;;;;7.20;5.50;;;;;;;9.02;100.00;97516.88;109839;1250;65207;-75
2023/11/14 02:45:21;;;;;;;7.10;4.80;;;;;;;9.04;100.00;97526.65;109814;1250;59771;-75
2023/11/14 02:47:48;;;;;;;7.40;5.50;;;;;;;9.06;100.00;97531.83;109890;1249;59763;-74
2023/11/14 02:50:52;;;;;;;6.80;5.10;;;;;;;9.09;100.00;97531.02;109885;1249;67948;-75
2023/11/14 02:53:20;;;;;;;7.80;4.80;;;;;;;9.12;100.00;97541.39;109854;1249;60100;-75
2023/11/14 02:55:51;;;;;;;9.80;6.60;;;;;;;9.16;100.00;97537.72;109823;1249;65612;-74
2023/11/14 02:58:19;;;;;;;9.80;6.70;;;;;;;9.20;100.00;97534.36;109515;1249;59800;-75
2023/11/14 03:00:48;;;;;;;8.60;5.60;;;;;;;9.21;100.00;97527.31;109856;1250;59878;-75
2023/11/14 03:03:16;;;;;;;9.10;5.60;;;;;;;9.22;100.00;97523.21;109609;1250;65762;-75
2023/11/14 03:05:44;;;;;;;6.60;4.80;;;;;;;9.25;100.00;97525.08;109882;1249;59776;-75
2023/11/14 03:08:10;;;;;;;7.40;4.40;;;;;;;9.27;100.00;97519.27;109860;1249;65773;-75
2023/11/14 03:10:38;;;;;;;8.80;6.20;;;;;;;9.27;100.00;97518.20;109830;1249;60185;-75
2023/11/14 03:13:08;;;;;;;6.80;5.30;;;;;;;9.27;100.00;97522.24;109467;1249;60419;-74
2023/11/14 03:15:35;;;;;;;6.20;4.70;;;;;;;9.30;100.00;97532.30;109483;1250;65664;-74
2023/11/14 03:18:02;;;;;;;4.20;3.60;;;;;;;9.31;100.00;97539.59;109856;1249;60028;-74
2023/11/14 03:20:28;;;;;;;3.40;3.00;;;;;;;9.35;100.00;97548.52;109604;1250;63759;-75
2023/11/14 03:22:58;;;;;;;5.10;3.30;;;;;;;9.39;100.00;97550.77;109525;1249;60322;-75
2023/11/14 03:25:24;;;;;;;3.60;2.90;;;;;;;9.46;100.00;97562.98;109888;1250;59746;-75
2023/11/14 03:27:51;;;;;;;3.40;3.00;;;;;;;9.52;100.00;97577.05;109818;1249;65296;-75
2023/11/14 03:30:19;;;;;;;3.70;3.40;;;;;;;9.58;100.00;97577.71;109885;1249;59767;-74
2023/11/14 03:32:45;;;;;;;3.30;3.00;;;;;;;9.65;100.00;97579.30;109868;1250;63739;-75
2023/11/14 03:35:12;;;;;;;3.30;3.00;;;;;;;9.71;100.00;97582.70;109864;1250;59887;-74
2023/11/14 03:37:39;;;;;;;3.20;2.60;;;;;;;9.77;100.00;97591.84;109836;1250;60173;-75
2023/11/14 03:40:06;;;;;;;3.20;2.90;;;;;;;9.83;100.00;97596.19;109847;1250;66531;-75
2023/11/14 03:42:36;;;;;;;2.80;2.50;;;;;;;9.86;100.00;97601.73;109518;1249;59966;-75
2023/11/14 03:45:03;;;;;;;2.80;2.50;;;;;;;9.89;100.00;97600.98;109854;1250;63940;-75
2023/11/14 03:47:29;;;;;;;2.60;2.40;;;;;;;9.93;100.00;97593.90;109833;1250;59842;-75
2023/11/14 03:49:56;;;;;;;3.40;2.50;;;;;;;9.95;100.00;97591.58;109874;1250;59926;-75
2023/11/14 03:52:25;;;;;;;2.30;2.10;;;;;;;9.96;100.00;97595.39;109850;1249;66807;-75
2023/11/14 03:54:52;;;;;;;2.90;2.70;;;;;;;9.95;100.00;97593.71;109844;1250;59841;-75
2023/11/14 03:57:19;;;;;;;3.10;2.80;;;;;;;9.94;100.00;97599.80;109831;1250;63892;-75
2023/11/14 03:59:46;;;;;;;2.80;2.30;;;;;;;9.94;100.00;97606.95;109826;1249;59770;-76
2023/11/14 04:02:13;;;;;;;2.50;2.30;;;;;;;9.93;100.00;97608.81;109863;1248;59773;-75
2023/11/14 04:04:39;;;;;;;2.30;2.10;;;;;;;9.94;100.00;97607.63;109597;1249;65707;-75
2023/11/14 04:07:06;;;;;;;2.90;2.70;;;;;;;9.95;100.00;97608.61;109837;1249;59828;-75
2023/11/14 04:09:32;;;;;;;4.50;2.80;;;;;;;9.95;100.00;97616.76;109855;1251;64046;-75
2023/11/14 04:11:59;;;;;;;3.00;2.50;;;;;;;9.97;100.00;97616.96;109493;1250;59866;-74
2023/11/14 04:14:26;;;;;;;3.80;2.80;;;;;;;10.00;100.00;97610.69;109861;1250;60153;-75
2023/11/14 04:16:54;;;;;;;4.60;2.60;;;;;;;10.01;100.00;97615.39;109868;1249;65300;-75
2023/11/14 04:19:20;;;;;;;2.60;2.10;;;;;;;9.98;100.00;97616.88;109423;1250;60108;-74
2023/11/14 04:21:47;;;;;;;2.20;2.10;;;;;;;9.95;100.00;97618.76;109831;1250;64853;-75
2023/11/14 04:24:13;;;;;;;2.40;1.90;;;;;;;9.95;100.00;97616.45;109863;1250;59778;-75
2023/11/14 04:26:42;;;;;;;1.80;1.70;;;;;;;9.92;100.00;97611.90;109878;1249;59801;-74
2023/11/14 04:29:09;;;;;;;1.90;1.80;;;;;;;9.88;100.00;97621.05;109828;1250;65361;-75
2023/11/14 04:31:35;;;;;;;1.90;1.80;;;;;;;9.87;100.00;97622.95;109851;1250;68755;-75
2023/11/14 04:34:02;;;;;;;2.00;1.80;;;;;;;9.86;100.00;97625.88;109816;1249;59794;-74
2023/11/14 04:36:31;;;;;;;1.50;1.40;;;;;;;9.85;100.00;97634.11;109817;1250;59880;-75
2023/11/14 04:38:58;;;;;;;1.80;1.50;;;;;;;9.86;100.00;97636.13;109809;1251;59670;-76
2023/11/14 04:41:24;;;;;;;1.50;1.40;;;;;;;9.88;100.00;97645.56;109860;1249;65453;-75
2023/11/14 04:43:51;;;;;;;1.50;1.40;;;;;;;9.90;100.00;97650.95;109910;1249;59895;-74
2023/11/14 04:46:17;;;;;;;1.90;1.50;;;;;;;9.91;100.00;97649.11;109479;1249;64986;-74
2023/11/14 04:48:45;;;;;;;2.90;1.90;;;;;;;9.89;100.00;97646.51;109843;1251;60119;-74
2023/11/14 04:51:11;;;;;;;3.30;1.70;;;;;;;9.88;100.00;97644.52;109876;1250;59806;-75
2023/11/14 04:53:38;;;;;;;2.40;1.50;;;;;;;9.84;100.00;97649.80;109899;1248;66670;-75
2023/11/14 04:56:05;;;;;;;1.60;1.20;;;;;;;9.81;100.00;97647.59;109825;1251;59769;-74
2023/11/14 04:58:32;;;;;;;2.50;1.60;;;;;;;9.79;100.00;97656.08;109814;1251;64060;-73
2023/11/14 05:01:00;;;;;;;1.80;1.70;;;;;;;9.78;100.00;97665.41;109840;1249;59768;-74
2023/11/14 05:03:26;;;;;;;2.40;1.60;;;;;;;9.75;100.00;97671.39;109829;1250;59826;-74
2023/11/14 05:05:53;;;;;;;2.60;1.80;;;;;;;9.74;100.00;97676.97;109898;1251;68042;-75
2023/11/14 05:08:20;;;;;;;3.30;1.60;;;;;;;9.74;100.00;97686.67;109846;1250;60167;-75
2023/11/14 05:10:46;;;;;;;1.90;1.40;;;;;;;9.78;100.00;97691.34;109869;1250;63350;-75
2023/11/14 05:13:13;;;;;;;2.40;1.60;;;;;;;9.81;100.00;97698.52;109837;1250;59996;-74
2023/11/14 05:15:39;;;;;;;2.90;1.70;;;;;;;9.82;100.00;97698.79;109833;1250;59990;-74
2023/11/14 05:18:06;;;;;;;1.80;1.60;;;;;;;9.82;100.00;97702.30;109863;1250;66822;-74
2023/11/14 05:20:32;;;;;;;2.30;1.40;;;;;;;9.84;100.00;97699.67;109529;1250;59837;-74
2023/11/14 05:22:59;;;;;;;2.90;1.90;;;;;;;9.85;100.00;97701.04;109850;1250;62809;-74
2023/11/14 05:25:25;;;;;;;4.00;2.00;;;;;;;9.86;100.00;97705.67;109823;1250;59819;-75
2023/11/14 05:27:52;;;;;;;2.70;1.80;;;;;;;9.88;100.00;97709.98;109842;1253;59888;-74
2023/11/14 05:30:19;;;;;;;3.10;2.10;;;;;;;9.89;100.00;97719.27;109851;1250;66871;-74
2023/11/14 05:32:48;;;;;;;1.80;1.70;;;;;;;9.91;100.00;97724.82;109879;1249;60243;-75
2023/11/14 05:35:14;;;;;;;1.80;1.60;;;;;;;9.92;100.00;97722.96;109835;1250;65137;-75
2023/11/14 05:37:41;;;;;;;3.00;1.80;;;;;;;9.93;100.00;97726.76;109551;1251;59908;-75
2023/11/14 05:40:12;;;;;;;3.20;1.80;;;;;;;9.94;100.00;97731.27;109853;1250;59828;-76
2023/11/14 05:42:41;;;;;;;2.70;1.90;;;;;;;9.95;100.00;97734.17;109551;1251;67061;-75
2023/11/14 05:45:09;;;;;;;4.00;2.20;;;;;;;9.97;100.00;97738.98;109838;1249;60265;-75
2023/11/14 05:47:35;;;;;;;3.10;2.00;;;;;;;10.00;100.00;97736.81;109567;1250;63971;-75
2023/11/14 05:50:04;;;;;;;2.20;1.60;;;;;;;10.01;100.00;97740.06;109821;1251;59740;-75
2023/11/14 05:52:31;;;;;;;2.70;1.80;;;;;;;10.02;100.00;97751.70;109862;1249;59811;-75
2023/11/14 05:54:57;;;;;;;3.60;2.30;;;;;;;10.03;100.00;97764.98;109847;1249;67034;-75
2023/11/14 05:57:24;;;;;;;2.10;1.50;;;;;;;10.06;100.00;97768.63;109863;1251;59882;-75
2023/11/14 05:59:51;;;;;;;2.40;1.60;;;;;;;10.07;100.00;97763.20;109413;1250;64202;-75
2023/11/14 06:02:17;;;;;;;3.10;2.10;;;;;;;10.07;100.00;97756.75;109848;1250;59781;-75
2023/11/14 06:04:44;;;;;;;2.50;1.80;;;;;;;10.07;100.00;97755.77;109847;1251;60160;-75
2023/11/14 06:07:11;;;;;;;2.90;1.70;;;;;;;10.06;100.00;97757.73;109842;1251;66653;-74
2023/11/14 06:09:37;;;;;;;1.60;1.40;;;;;;;10.06;100.00;97757.41;109905;1250;59844;-75
2023/11/14 06:12:04;;;;;;;2.40;1.70;;;;;;;10.08;100.00;97757.42;109825;1249;63745;-75
2023/11/14 06:14:31;;;;;;;2.00;1.30;;;;;;;10.11;100.00;97764.24;109293;1250;59845;-75
2023/11/14 06:16:57;;;;;;;3.40;1.50;;;;;;;10.12;100.00;97768.30;109560;1250;60209;-75
2023/11/14 06:19:24;;;;;;;2.30;1.60;;;;;;;10.12;100.00;97773.94;109855;1250;65472;-75
2023/11/14 06:21:51;;;;;;;1.60;1.20;;;;;;;10.11;100.00;97784.71;109853;1250;60232;-75
2023/11/14 06:24:17;;;;;;;1.90;1.40;;;;;;;10.12;100.00;97790.66;109831;1250;62804;-76
2023/11/14 06:26:44;;;;;;;2.90;1.70;;;;;;;10.14;100.00;97792.59;109812;1249;59773;-74
2023/11/14 06:29:11;;;;;;;2.20;1.80;;;;;;;10.16;100.00;97799.54;109862;1251;59647;-74
2023/11/14 06:31:41;;;;;;;3.60;1.90;;;;;;;10.16;100.00;97806.09;109826;1250;66678;-74
2023/11/14 06:34:07;;;;;;;3.50;1.90;;;;;;;10.17;100.00;97819.68;109545;1250;59759;-75
2023/11/14 06:36:34;;;;;;;2.30;1.60;;;;;;;10.16;100.00;97827.58;109781;1250;59915;-76
2023/11/14 06:39:00;;;;;;;3.30;1.50;;;;;;;10.12;100.00;97835.56;109826;1250;59978;-75
2023/11/14 06:41:27;;;;;;;2.60;1.60;;;;;;;10.08;100.00;97835.89;109859;1250;59898;-75
2023/11/14 06:43:53;;;;;;;3.40;1.40;;;;;;;10.04;100.00;97842.27;109818;1250;67473;-76
2023/11/14 06:46:20;;;;;;;3.60;1.50;;;;;;;10.03;100.00;97851.39;109856;1249;59973;-74
2023/11/14 06:48:46;;;;;;;3.90;1.60;;;;;;;10.07;100.00;97859.17;109830;1250;65188;-75
2023/11/14 06:51:13;;;;;;;2.00;1.80;;;;;;;10.12;100.00;97862.66;109850;1249;59688;-75
2023/11/14 06:53:39;;;;;;;3.40;1.80;;;;;;;10.17;100.00;97866.01;109866;1250;59767;-74
2023/11/14 06:56:06;;;;;;;3.70;2.00;;;;;;;10.20;100.00;97873.92;109887;1250;59784;-75
2023/11/14 06:58:34;;;;;;;4.00;2.20;;;;;;;10.21;100.00;97874.73;109840;1250;61366;-75
2023/11/14 07:01:00;;;;;;;4.60;2.10;;;;;;;10.24;100.00;97875.16;109844;1249;62591;-74
2023/11/14 07:03:30;;;;;;;3.10;2.10;;;;;;;10.28;100.00;97872.55;109794;1250;59754;-74
2023/11/14 07:05:57;;;;;;;;;;;;;;;10.35;100.00;97878.05;109821;1249;59926;-75
2023/11/14 07:08:24;;;;;;;4.00;1.80;;;;;;;10.44;100.00;97879.92;109829;1250;68046;-75
2023/11/14 07:10:50;;;;;;;3.40;1.90;;;;;;;10.54;100.00;97882.42;109868;1250;59857;-75
2023/11/14 07:13:18;;;;;;;5.10;2.80;;;;;;;10.64;100.00;97877.02;109780;1250;63968;-75
2023/11/14 07:15:44;;;;;;;6.50;2.40;;;;;;;10.71;100.00;97871.44;109777;1253;59847;-75
2023/11/14 07:18:11;;;;;;;6.30;3.20;;;;;;;10.74;100.00;97877.88;109848;1249;59807;-75
2023/11/14 07:20:37;;;;;;;6.70;3.00;;;;;;;10.79;100.00;97882.13;109825;1251;67726;-74
2023/11/14 07:23:04;;;;;;;6.90;3.50;;;;;;;10.82;100.00;97884.57;109819;1249;60060;-75
2023/11/14 07:25:34;;;;;;;4.90;2.60;;;;;;;10.84;100.00;97878.16;109858;1250;64122;-75
2023/11/14 07:28:02;;;;;;;5.40;2.30;;;;;;;10.90;100.00;97870.50;109843;1249;59757;-75
2023/11/14 07:30:30;;;;;;;4.90;2.50;;;;;;;10.98;100.00;97870.91;109814;1250;60186;-75
2023/11/14 07:32:57;;;;;;;3.20;1.70;;;;;;;11.05;100.00;97872.28;109519;1251;69297;-74
2023/11/14 07:35:26;;;;;;;4.10;2.00;;;;;;;11.10;100.00;97872.17;109565;1250;60008;-76
2023/11/14 07:37:52;;;;;;;3.20;1.80;;;;;;;11.14;100.00;97863.98;109823;1250;63879;-74
2023/11/14 07:40:20;;;;;;;5.20;1.90;;;;;;;11.17;100.00;97865.11;109832;1250;59699;-74
2023/11/14 07:42:48;;;;;;;2.00;1.60;;;;;;;11.20;100.00;97867.69;109079;1251;59927;-74
2023/11/14 07:45:15;;;;;;;4.20;1.90;;;;;;;11.23;100.00;97871.17;109848;1251;66701;-75
2023/11/14 07:47:41;;;;;;;2.40;1.60;;;;;;;11.26;100.00;97872.93;109830;1249;59925;-74
2023/11/14 07:50:08;;;;;;;2.60;1.60;;;;;;;11.26;100.00;97873.23;109807;1251;59933;-76
2023/11/14 07:52:34;;;;;;;3.90;1.70;;;;;;;11.28;100.00;97878.44;109838;1249;59715;-74
2023/11/14 07:55:03;;;;;;;5.90;2.10;;;;;;;11.31;100.00;97882.96;109802;1250;59830;-74
2023/11/14 07:57:30;;;;;;;3.10;1.30;;;;;;;11.33;100.00;97884.02;109863;1250;66862;-75
2023/11/14 07:59:58;;;;;;;3.40;2.10;;;;;;;11.35;100.00;97889.71;109867;1250;60147;-75
2023/11/14 08:02:24;;;;;;;4.60;1.60;;;;;;;11.37;100.00;97889.54;109798;1250;63794;-75
2023/11/14 08:04:52;;;;;;;3.80;1.50;;;;;;;11.37;100.00;97887.92;109822;1250;59730;-75
2023/11/14 08:07:19;;;;;;;5.80;1.90;;;;;;;11.38;100.00;97884.96;109424;1250;59843;-73
2023/11/14 08:09:45;;;;;;;3.00;2.00;;;;;;;11.40;100.00;97880.92;109801;1250;67651;-75
2023/11/14 08:12:12;;;;;;;5.80;2.00;;;;;;;11.41;100.00;97880.63;109844;1250;59891;-74
2023/11/14 08:14:39;;;;;;;5.80;2.90;;;;;;;11.44;100.00;97885.17;109521;1250;60253;-74
2023/11/14 08:17:05;;;;;;;5.00;2.40;;;;;;;11.45;100.00;97888.13;109489;1250;59770;-74
2023/11/14 08:19:32;;;;;;;4.80;2.10;;;;;;;11.46;100.00;97890.16;109836;1250;59742;-74
2023/11/14 08:22:04;;;;;;;6.00;2.40;;;;;;;11.47;100.00;97887.04;109853;1250;65641;-75
2023/11/14 08:24:31;;;;;;;5.10;1.60;;;;;;;11.51;100.00;97890.83;109836;1249;59814;-75
2023/11/14 08:26:57;;;;;;;4.70;2.10;;;;;;;11.55;100.00;97899.00;109402;1250;62490;-74
2023/11/14 08:29:24;;;;;;;8.20;1.80;;;;;;;11.57;100.00;97902.86;109798;1251;60066;-74
2023/11/14 08:31:51;;;;;;;5.80;1.60;;;;;;;11.58;100.00;97907.55;109815;1250;59723;-75
2023/11/14 08:34:17;;;;;;;4.40;2.00;;;;;;;11.61;100.00;97905.88;109831;1251;67336;-74
2023/11/14 08:36:44;;;;;;;4.30;1.90;;;;;;;11.66;100.00;97902.63;109865;1250;60125;-74
2023/11/14 08:39:12;;;;;;;4.80;2.10;;;;;;;11.65;100.00;97898.05;109819;1249;59835;-75
2023/11/14 08:41:40;;;;;;;5.40;2.00;;;;;;;11.62;100.00;97887.52;109847;1250;59728;-73
2023/11/14 08:44:07;;;;;;;6.60;2.90;;;;;;;11.55;100.00;97888.48;109827;1250;59827;-74
2023/11/14 08:46:34;;;;;;;7.50;2.50;;;;;;;11.50;100.00;97887.90;109799;1250;66628;-74
2023/11/14 08:49:04;;;;;;;7.50;2.90;;;;;;;11.49;100.00;97895.20;109851;1250;61356;-74
2023/11/14 08:51:31;;;;;;;6.00;3.60;;;;;;;11.57;100.00;97899.63;109802;1249;62965;-75
2023/11/14 08:53:57;;;;;;;8.10;3.30;;;;;;;11.68;100.00;97893.77;109836;1250;59805;-74
2023/11/14 08:56:33;;;;;;;6.60;3.30;;;;;;;11.74;100.00;97888.55;102675;1289;600229;-76
2023/11/14 08:59:00;;;;;;;8.50;2.50;;;;;;;11.69;100.00;97891.86;104885;1270;59997;-76
2023/11/14 09:01:27;;;;;;;5.00;2.00;;;;;;;11.66;100.00;97895.50;105071;1267;59305;-77
2023/11/14 09:03:53;;;;;;;3.50;1.90;;;;;;;11.64;100.00;97894.55;105097;1268;65882;-76
2023/11/14 09:06:20;;;;;;;5.50;2.30;;;;;;;11.65;100.00;97900.05;105109;1267;60915;-75
2023/11/14 09:08:46;;;;;;;3.40;2.00;;;;;;;11.65;100.00;97903.26;105054;1265;64463;-75
2023/11/14 09:11:13;;;;;;;4.80;2.00;;;;;;;11.63;100.00;97907.83;104915;1263;165738;-75
2023/11/14 09:13:40;;;;;;;4.10;1.80;;;;;;;11.63;100.00;97908.38;105034;1263;59356;-75
2023/11/14 09:16:09;;;;;;;6.70;2.70;;;;;;;11.64;100.00;97915.21;104970;1263;59301;-75
2023/11/14 09:18:39;;;;;;;5.00;1.80;;;;;;;11.69;100.00;97919.48;105243;1264;60647;-75
2023/11/14 09:21:05;;;;;;;6.30;1.80;;;;;;;11.73;100.00;97918.23;104857;1264;64560;-75
2023/11/14 09:23:33;;;;;;;5.20;1.70;;;;;;;11.78;100.00;97921.34;105173;1263;59681;-74
2023/11/14 09:26:03;;;;;;;6.10;2.10;;;;;;;11.84;100.00;97927.02;105033;1263;59628;-75
2023/11/14 09:28:30;;;;;;;4.00;1.70;;;;;;;11.92;100.00;97930.43;105225;1264;64944;-75
2023/11/14 09:30:57;;;;;;;5.70;2.00;;;;;;;12.02;100.00;97929.36;105331;1264;61041;-76
2023/11/14 09:33:24;;;;;;;6.60;2.40;;;;;;;12.11;100.00;97927.82;105344;1263;64078;-74
2023/11/14 09:35:50;;;;;;;6.10;2.20;;;;;;;12.19;100.00;97937.27;105323;1266;61140;-75
2023/11/14 09:38:17;;;;;;;4.10;2.50;;;;;;;12.27;100.00;97935.98;105363;1264;59526;-76
2023/11/14 09:40:44;;;;;;;3.60;1.70;;;;;;;12.35;100.00;97934.00;105196;1262;64933;-74
2023/11/14 09:43:11;;;;;;;4.10;1.50;;;;;;;12.38;100.00;97940.64;105176;1266;59796;-75
2023/11/14 09:45:41;;;;;;;5.70;1.70;;;;;;;12.37;100.00;97939.38;105137;1263;63461;-76
2023/11/14 09:48:10;;;;;;;5.40;1.80;;;;;;;12.38;100.00;97942.95;105180;1266;59746;-75
2023/11/14 09:50:41;;;;;;;5.40;1.80;;;;;;;12.45;100.00;97943.98;105156;1266;59637;-76
2023/11/14 09:53:07;;;;;;;5.40;1.90;;;;;;;12.51;100.00;97933.92;105135;1266;73942;-76
2023/11/14 09:55:34;;;;;;;6.70;2.90;;;;;;;12.52;100.00;97934.06;105149;1263;59615;-76
2023/11/14 09:58:01;;;;;;;4.70;1.60;;;;;;;12.51;100.00;97933.39;105132;1263;64757;-75
2023/11/14 10:00:29;;;;;;;4.20;1.60;;;;;;;12.52;100.00;97934.64;105142;1263;60929;-74
2023/11/14 10:02:57;;;;;;;5.20;1.80;;;;;;;12.50;100.00;97940.64;105182;1264;59801;-75
2023/11/14 10:05:24;;;;;;;4.90;1.70;;;;;;;12.39;100.00;97938.62;105327;1263;65100;-76
2023/11/14 10:07:50;;;;;;;4.90;1.90;;;;;;;12.31;100.00;97934.91;105174;1267;60497;-75
2023/11/14 10:10:17;;;;;;;6.10;1.60;;;;;;;12.34;100.00;97924.81;105139;1266;65153;-75
2023/11/14 10:12:44;;;;;;;3.40;1.10;;;;;;;12.42;100.00;97917.89;105164;1263;59653;-76
2023/11/14 10:15:11;;;;;;;5.60;2.00;;;;;;;12.52;100.00;97919.83;105149;1263;59663;-75
2023/11/14 10:17:45;;;;;;;6.30;1.90;;;;;;;12.69;100.00;97920.89;105158;1266;66320;-74
2023/11/14 10:20:14;;;;;;;4.00;1.40;;;;;;;12.87;100.00;97922.95;105147;1266;61925;-75
2023/11/14 10:22:54;;;;;;;5.10;1.40;;;;;;;12.99;100.00;97917.77;105634;1256;62773;-75
2023/11/14 10:25:28;;;;;;;4.90;1.70;;;;;;;13.00;100.00;97908.56;105622;1255;59771;-75
2023/11/14 10:28:00;;;;;;;7.20;1.40;;;;;;;12.92;100.00;97900.98;105748;1260;59612;-74
2023/11/14 10:30:49;;;;;;;5.50;1.30;;;;;;;12.83;100.00;97905.02;105950;1259;64429;-75
2023/11/14 10:33:16;;;;;;;3.90;1.50;;;;;;;12.78;100.00;97893.91;105716;1257;68991;-75
2023/11/14 10:35:45;;;;;;;3.70;1.60;;;;;;;12.71;100.00;97902.30;105725;1260;64624;-76
2023/11/14 10:38:16;;;;;;;5.00;1.40;;;;;;;12.57;100.00;97901.81;105435;1255;59631;-75
2023/11/14 10:40:44;;;;;;;5.60;1.50;;;;;;;12.45;100.00;97888.92;105708;1260;61085;-76
2023/11/14 10:43:11;;;;;;;4.60;1.80;;;;;;;12.44;100.00;97896.88;105696;1259;65022;-74
2023/11/14 10:45:38;;;;;;;6.50;1.60;;;;;;;12.55;100.00;97894.42;105768;1260;60611;-76
2023/11/14 10:48:06;;;;;;;5.10;1.50;;;;;;;12.60;100.00;97895.72;105807;1260;73369;-75
2023/11/14 10:50:34;;;;;;;5.20;1.50;;;;;;;12.59;100.00;97896.00;105978;1259;59660;-75
2023/11/14 10:53:02;;;;;;;5.10;2.20;;;;;;;12.51;100.00;97900.61;105727;1259;59551;-75
2023/11/14 10:55:28;;;;;;;4.20;1.40;;;;;;;12.48;100.00;97916.94;105661;1257;63884;-75
2023/11/14 10:57:55;;;;;;;5.40;1.60;;;;;;;12.54;100.00;97920.71;105689;1259;61026;-75
2023/11/14 11:00:22;;;;;;;5.20;1.90;;;;;;;12.62;100.00;97919.07;105487;1257;65574;-74
2023/11/14 11:02:50;;;;;;;6.60;1.40;;;;;;;12.67;100.00;97915.73;105491;1257;59812;-76
2023/11/14 11:05:20;;;;;;;5.40;1.20;;;;;;;12.69;100.00;97909.88;105947;1255;59645;-75
2023/11/14 11:07:48;;;;;;;4.50;1.50;;;;;;;12.76;100.00;97910.94;105692;1257;66238;-74
2023/11/14 11:10:16;;;;;;;5.00;1.70;;;;;;;12.81;100.00;97918.71;105633;1257;60546;-74
2023/11/14 11:12:44;;;;;;;3.80;1.20;;;;;;;12.83;100.00;97925.09;105686;1259;64290;-75
2023/11/14 11:15:11;;;;;;;6.70;1.50;;;;;;;12.87;100.00;97931.02;105649;1257;59650;-75
2023/11/14 11:17:45;;;;;;;5.70;1.70;;;;;;;12.85;100.00;97918.55;105681;1260;59557;-75
2023/11/14 11:20:26;;;;;;;2.90;1.20;;;;;;;12.86;100.00;97916.27;105676;1257;63858;-75
2023/11/14 11:23:02;;;;;;;5.30;2.20;;;;;;;12.85;100.00;97914.56;105662;1256;61841;-75